createdAt,value
2023-02-17T00:01:38.421Z,61.18
2023-02-17T00:04:06.966Z,62.52
2023-02-17T00:06:35.409Z,62.63
2023-02-17T00:09:04.472Z,60.94
2023-02-17T00:11:33.619Z,59.46
2023-02-17T00:14:02.179Z,58.68
2023-02-17T00:16:30.894Z,59.99
2023-02-17T00:19:01.908Z,61.21
2023-02-17T00:21:32.670Z,62.36
2023-02-17T00:24:01.256Z,62.97
2023-02-17T00:26:30.580Z,61.64
2023-02-17T00:28:59.489Z,60.37
2023-02-17T00:31:28.085Z,59.31
2023-02-17T00:33:57.258Z,58.41
2023-02-17T00:36:27.328Z,59.71
2023-02-17T00:38:57.806Z,60.96
2023-02-17T00:41:27.965Z,62.58
2023-02-17T00:44:00.236Z,62.79
2023-02-17T00:46:28.823Z,61.34
2023-02-17T00:48:57.302Z,59.94
2023-02-17T00:51:26.843Z,58.61
2023-02-17T00:53:55.282Z,59.08
2023-02-17T00:56:23.700Z,60.44
2023-02-17T00:58:53.107Z,61.79
2023-02-17T01:01:21.756Z,62.97
2023-02-17T01:03:50.242Z,62.76
2023-02-17T01:06:28.531Z,61.30
2023-02-17T01:08:57.745Z,60.10
2023-02-17T01:11:29.059Z,58.50
2023-02-17T01:14:01.988Z,58.73
2023-02-17T01:16:35.457Z,59.90
2023-02-17T01:19:07.293Z,61.11
2023-02-17T01:21:36.467Z,62.24
2023-02-17T01:24:08.613Z,63.06
2023-02-17T01:26:37.635Z,62.34
2023-02-17T01:29:07.407Z,60.44
2023-02-17T01:31:37.351Z,58.88
2023-02-17T01:34:06.300Z,58.87
2023-02-17T01:36:35.342Z,60.23
2023-02-17T01:39:04.275Z,61.25
2023-02-17T01:41:32.869Z,62.47
2023-02-17T01:44:19.826Z,63.28
2023-02-17T01:46:50.749Z,61.67
2023-02-17T01:49:34.511Z,60.49
2023-02-17T01:52:17.345Z,58.68
2023-02-17T01:54:52.716Z,59.51
2023-02-17T01:57:26.973Z,60.95
2023-02-17T01:59:56.530Z,61.96
2023-02-17T02:02:29.595Z,63.14
2023-02-17T02:05:00.466Z,62.24
2023-02-17T02:07:32.693Z,60.72
2023-02-17T02:10:01.356Z,59.07
2023-02-17T02:12:34.459Z,58.79
2023-02-17T02:15:08.628Z,59.98
2023-02-17T02:17:46.150Z,60.88
2023-02-17T02:20:34.084Z,62.22
2023-02-17T02:23:47.776Z,63.14
2023-02-17T02:26:55.245Z,61.58
2023-02-17T02:29:42.303Z,59.47
2023-02-17T02:32:35.686Z,58.18
2023-02-17T02:35:19.459Z,59.27
2023-02-17T02:38:01.286Z,60.46
2023-02-17T02:40:35.068Z,61.78
2023-02-17T02:43:05.448Z,62.94
2023-02-17T02:45:35.751Z,62.82
2023-02-17T02:48:04.295Z,61.23
2023-02-17T02:50:54.644Z,59.24
2023-02-17T02:53:28.652Z,58.94
2023-02-17T02:56:16.286Z,60.19
2023-02-17T02:58:50.916Z,61.41
2023-02-17T03:01:30.538Z,62.23
2023-02-17T03:04:05.015Z,63.32
2023-02-17T03:06:58.539Z,62.13
2023-02-17T03:09:28.909Z,60.13
2023-02-17T03:11:58.560Z,58.65
2023-02-17T03:14:35.806Z,58.91
2023-02-17T03:17:04.862Z,60.36
2023-02-17T03:19:33.267Z,61.84
2023-02-17T03:22:20.538Z,62.82
2023-02-17T03:24:49.703Z,62.25
2023-02-17T03:27:18.354Z,60.81
2023-02-17T03:29:46.961Z,59.20
2023-02-17T03:32:15.421Z,58.95
2023-02-17T03:34:43.962Z,60.13
2023-02-17T03:37:12.501Z,61.50
2023-02-17T03:39:40.990Z,62.53
2023-02-17T03:42:09.520Z,63.29
2023-02-17T03:44:38.089Z,62.06
2023-02-17T03:47:07.605Z,61.03
2023-02-17T03:49:36.041Z,59.28
2023-02-17T03:52:04.864Z,59.16
2023-02-17T03:54:33.420Z,60.64
2023-02-17T03:57:02.223Z,62.56
2023-02-17T03:59:30.955Z,62.65
2023-02-17T04:01:59.431Z,62.24
2023-02-17T04:04:28.049Z,60.45
2023-02-17T04:06:56.505Z,59.82
2023-02-17T04:09:24.891Z,57.94
2023-02-17T04:11:53.343Z,59.31
2023-02-17T04:14:22.323Z,61.03
2023-02-17T04:16:50.732Z,61.78
2023-02-17T04:19:21.156Z,63.98
2023-02-17T04:21:49.945Z,64.13
2023-02-17T04:24:18.441Z,62.61
2023-02-17T04:26:46.842Z,61.64
2023-02-17T04:29:15.375Z,61.77
2023-02-17T04:31:43.948Z,61.12
2023-02-17T04:34:12.544Z,60.27
2023-02-17T04:36:42.895Z,59.87
2023-02-17T04:39:12.905Z,58.39
2023-02-17T04:41:41.435Z,59.44
2023-02-17T04:44:09.882Z,60.46
2023-02-17T04:46:38.598Z,61.67
2023-02-17T04:49:07.077Z,63.17
2023-02-17T04:51:35.514Z,63.26
2023-02-17T04:54:04.070Z,61.36
2023-02-17T04:56:32.580Z,60.23
2023-02-17T04:59:01.247Z,58.97
2023-02-17T05:01:29.883Z,59.75
2023-02-17T05:03:58.454Z,61.17
2023-02-17T05:06:26.882Z,63.05
2023-02-17T05:08:55.317Z,64.13
2023-02-17T05:11:23.846Z,62.65
2023-02-17T05:13:52.249Z,61.15
2023-02-17T05:16:20.724Z,60.62
2023-02-17T05:18:50.021Z,59.79
2023-02-17T05:21:18.473Z,58.86
2023-02-17T05:23:47.069Z,59.94
2023-02-17T05:26:15.557Z,61.47
2023-02-17T05:28:44.158Z,63.27
2023-02-17T05:31:13.475Z,63.41
2023-02-17T05:33:42.233Z,62.51
2023-02-17T05:36:11.641Z,60.94
2023-02-17T05:38:40.968Z,60.48
2023-02-17T05:41:09.561Z,60.08
2023-02-17T05:43:38.099Z,58.88
2023-02-17T05:46:07.036Z,59.83
2023-02-17T05:48:35.801Z,61.66
2023-02-17T05:51:04.669Z,63.62
2023-02-17T05:53:33.259Z,63.41
2023-02-17T05:56:01.872Z,62.40
2023-02-17T05:58:30.918Z,61.64
2023-02-17T06:00:59.297Z,60.88
2023-02-17T06:03:27.921Z,60.32
2023-02-17T06:05:56.469Z,59.28
2023-02-17T06:08:25.066Z,59.44
2023-02-17T06:10:54.414Z,60.88
2023-02-17T06:13:22.918Z,62.44
2023-02-17T06:15:51.399Z,64.43
2023-02-17T06:18:20.094Z,63.83
2023-02-17T06:20:48.613Z,62.31
2023-02-17T06:23:17.512Z,61.65
2023-02-17T06:25:46.588Z,60.97
2023-02-17T06:28:15.159Z,60.29
2023-02-17T06:30:43.716Z,59.41
2023-02-17T06:33:12.311Z,60.01
2023-02-17T06:35:40.790Z,61.29
2023-02-17T06:38:09.308Z,63.30
2023-02-17T06:40:37.938Z,63.16
2023-02-17T06:43:07.176Z,62.28
2023-02-17T06:45:35.721Z,61.38
2023-02-17T06:48:04.441Z,61.29
2023-02-17T06:50:32.963Z,60.28
2023-02-17T06:53:01.384Z,60.17
2023-02-17T06:55:30.049Z,59.69
2023-02-17T06:57:58.408Z,59.74
2023-02-17T07:00:27.375Z,61.81
2023-02-17T07:02:56.054Z,63.23
2023-02-17T07:05:25.188Z,62.62
2023-02-17T07:07:53.971Z,62.36
2023-02-17T07:10:22.448Z,61.54
2023-02-17T07:12:51.484Z,60.17
2023-02-17T07:15:20.003Z,60.04
2023-02-17T07:17:48.546Z,59.65
2023-02-17T07:20:17.412Z,61.00
2023-02-17T07:22:45.975Z,62.60
2023-02-17T07:25:14.684Z,63.99
2023-02-17T07:27:43.221Z,63.30
2023-02-17T07:30:12.264Z,62.14
2023-02-17T07:32:41.508Z,61.38
2023-02-17T07:35:10.350Z,60.90
2023-02-17T07:37:38.984Z,60.57
2023-02-17T07:40:08.319Z,59.78
2023-02-17T07:42:36.768Z,59.60
2023-02-17T07:45:06.174Z,60.89
2023-02-17T07:47:34.738Z,63.28
2023-02-17T07:50:03.429Z,63.21
2023-02-17T07:52:31.902Z,62.27
2023-02-17T07:55:00.512Z,61.59
2023-02-17T07:57:30.302Z,61.79
2023-02-17T07:59:58.865Z,60.94
2023-02-17T08:02:27.557Z,60.40
2023-02-17T08:04:56.453Z,59.51
2023-02-17T08:07:25.079Z,60.35
2023-02-17T08:10:12.824Z,62.82
2023-02-17T08:13:00.166Z,63.56
2023-02-17T08:15:28.786Z,62.38
2023-02-17T08:17:57.698Z,61.87
2023-02-17T08:20:26.244Z,61.34
2023-02-17T08:22:54.715Z,61.09
2023-02-17T08:25:23.223Z,60.54
2023-02-17T08:27:51.697Z,60.30
2023-02-17T08:30:20.301Z,60.10
2023-02-17T08:32:48.864Z,59.54
2023-02-17T08:35:20.594Z,61.21
2023-02-17T08:37:50.399Z,63.41
2023-02-17T08:40:19.746Z,64.20
2023-02-17T08:42:48.660Z,63.30
2023-02-17T08:45:18.341Z,62.91
2023-02-17T08:47:46.810Z,61.66
2023-02-17T08:50:16.754Z,61.32
2023-02-17T08:52:45.250Z,60.77
2023-02-17T08:55:15.450Z,60.50
2023-02-17T08:57:44.768Z,60.19
2023-02-17T09:00:14.187Z,60.41
2023-02-17T09:02:45.245Z,60.03
2023-02-17T09:05:15.241Z,61.02
2023-02-17T09:07:43.871Z,60.38
2023-02-17T09:10:14.822Z,60.35
2023-02-17T09:12:43.488Z,60.04
2023-02-17T09:15:12.001Z,59.84
2023-02-17T09:17:42.081Z,61.20
2023-02-17T09:20:23.983Z,64.05
2023-02-17T09:22:53.556Z,64.17
2023-02-17T09:25:22.503Z,63.79
2023-02-17T09:27:51.452Z,62.39
2023-02-17T09:30:20.020Z,62.21
2023-02-17T09:32:48.766Z,61.67
2023-02-17T09:35:18.633Z,61.25
2023-02-17T09:37:47.987Z,61.79
2023-02-17T09:40:47.492Z,61.17
2023-02-17T09:43:29.188Z,61.52
2023-02-17T09:46:03.003Z,61.54
2023-02-17T09:48:33.202Z,61.27
2023-02-17T09:51:12.554Z,61.46
2023-02-17T09:54:00.189Z,60.57
2023-02-17T09:56:34.779Z,60.33
2023-02-17T09:59:20.053Z,59.97
2023-02-17T10:01:51.145Z,59.95
2023-02-17T10:04:27.615Z,60.28
2023-02-17T10:07:20.412Z,60.02
2023-02-17T10:10:03.563Z,60.14
2023-02-17T10:12:39.949Z,60.83
2023-02-17T10:15:17.927Z,60.82
2023-02-17T10:17:51.294Z,60.79
2023-02-17T10:20:33.588Z,60.70
2023-02-17T10:23:19.097Z,60.62
2023-02-17T10:26:15.857Z,60.76
2023-02-17T10:29:01.049Z,60.86
2023-02-17T10:32:08.492Z,61.06
2023-02-17T10:35:16.790Z,60.69
2023-02-17T10:37:51.451Z,60.77
2023-02-17T10:40:22.831Z,60.52
2023-02-17T10:42:55.532Z,60.32
2023-02-17T10:45:33.991Z,60.79
2023-02-17T10:48:18.818Z,60.75
2023-02-17T10:50:48.820Z,60.50
2023-02-17T10:53:23.170Z,60.64
2023-02-17T10:56:10.738Z,60.77
2023-02-17T10:58:55.686Z,60.80
2023-02-17T11:01:24.592Z,60.56
2023-02-17T11:04:06.015Z,61.04
2023-02-17T11:06:58.185Z,60.76
2023-02-17T11:09:32.363Z,60.67
2023-02-17T11:12:04.533Z,60.84
2023-02-17T11:14:35.500Z,60.65
2023-02-17T11:17:16.797Z,60.86
2023-02-17T11:19:59.262Z,61.26
2023-02-17T11:22:48.819Z,61.52
2023-02-17T11:25:26.435Z,60.69
2023-02-17T11:28:01.836Z,61.04
2023-02-17T11:30:33.137Z,61.19
2023-02-17T11:33:14.323Z,60.95
2023-02-17T11:35:42.767Z,61.00
2023-02-17T11:38:19.808Z,60.71
2023-02-17T11:40:59.369Z,61.12
2023-02-17T11:43:30.166Z,61.09
2023-02-17T11:46:12.434Z,61.32
2023-02-17T11:48:52.736Z,60.91
2023-02-17T11:51:45.993Z,61.16
2023-02-17T11:54:33.137Z,61.12
2023-02-17T11:57:39.935Z,61.42
2023-02-17T12:00:33.327Z,61.58
2023-02-17T12:03:13.939Z,61.80
2023-02-17T12:06:12.501Z,61.95
2023-02-17T12:09:11.471Z,62.23
2023-02-17T12:12:17.226Z,62.20
2023-02-17T12:14:49.658Z,62.38
2023-02-17T12:17:24.815Z,62.72
2023-02-17T12:20:15.274Z,62.82
2023-02-17T12:22:46.599Z,63.02
2023-02-17T12:25:24.437Z,61.86
2023-02-17T12:28:01.572Z,58.33
2023-02-17T12:30:41.961Z,59.12
2023-02-17T12:33:29.010Z,62.91
2023-02-17T12:36:14.258Z,64.19
2023-02-17T12:38:53.430Z,63.86
2023-02-17T12:41:37.457Z,63.70
2023-02-17T12:44:17.491Z,63.50
2023-02-17T12:46:51.818Z,63.49
2023-02-17T12:49:58.946Z,63.53
2023-02-17T12:52:37.772Z,63.34
2023-02-17T12:55:21.020Z,63.41
2023-02-17T12:58:01.254Z,63.18
2023-02-17T13:00:34.143Z,63.03
2023-02-17T13:03:04.483Z,63.46
2023-02-17T13:05:44.661Z,63.58
2023-02-17T13:08:22.152Z,63.65
2023-02-17T13:11:05.123Z,63.81
2023-02-17T13:13:35.839Z,63.91
2023-02-17T13:16:06.614Z,63.84
2023-02-17T13:18:38.448Z,64.09
2023-02-17T13:21:32.315Z,64.29
2023-02-17T13:24:07.978Z,64.01
2023-02-17T13:26:39.215Z,63.96
2023-02-17T13:29:24.948Z,63.83
2023-02-17T13:32:05.402Z,64.20
2023-02-17T13:34:43.811Z,64.25
2023-02-17T13:37:18.849Z,64.08
2023-02-17T13:39:47.431Z,64.02
2023-02-17T13:42:40.759Z,63.96
2023-02-17T13:45:27.389Z,63.96
2023-02-17T13:48:01.060Z,63.94
2023-02-17T13:50:29.986Z,64.10
2023-02-17T13:52:58.818Z,64.24
2023-02-17T13:55:27.385Z,64.08
2023-02-17T13:57:58.738Z,64.16
2023-02-17T14:00:30.203Z,64.19
2023-02-17T14:03:17.703Z,64.40
2023-02-17T14:05:48.402Z,64.36
2023-02-17T14:08:37.076Z,64.01
2023-02-17T14:11:08.344Z,64.05
2023-02-17T14:13:46.095Z,64.34
2023-02-17T14:16:36.228Z,64.37
2023-02-17T14:19:08.150Z,64.82
2023-02-17T14:21:40.172Z,65.01
2023-02-17T14:24:23.684Z,64.96
2023-02-17T14:27:07.215Z,64.84
2023-02-17T14:29:47.358Z,64.78
2023-02-17T14:32:40.589Z,64.69
2023-02-17T14:35:12.047Z,64.88
2023-02-17T14:37:42.064Z,64.97
2023-02-17T14:40:23.980Z,65.12
2023-02-17T14:42:52.681Z,65.21
2023-02-17T14:45:21.161Z,64.88
2023-02-17T14:47:50.820Z,65.20
2023-02-17T14:50:19.389Z,64.88
2023-02-17T14:52:50.062Z,64.85
2023-02-17T14:55:42.553Z,64.81
2023-02-17T14:58:20.022Z,65.07
2023-02-17T15:00:49.754Z,65.12
2023-02-17T15:03:18.817Z,64.95
2023-02-17T15:05:47.912Z,64.92
2023-02-17T15:08:19.616Z,64.98
2023-02-17T15:10:49.591Z,64.60
2023-02-17T15:13:22.414Z,64.40
2023-02-17T15:15:51.066Z,64.65
2023-02-17T15:18:21.308Z,64.81
2023-02-17T15:20:51.923Z,64.73
2023-02-17T15:23:23.129Z,64.91
2023-02-17T15:25:53.945Z,65.09
2023-02-17T15:28:22.602Z,65.01
2023-02-17T15:30:54.839Z,64.78
2023-02-17T15:33:24.387Z,64.73
2023-02-17T15:35:55.089Z,64.74
2023-02-17T15:38:24.702Z,64.60
2023-02-17T15:40:57.109Z,64.60
2023-02-17T15:46:14.692Z,64.60
2023-02-17T15:48:45.001Z,64.56
2023-02-17T15:51:16.141Z,64.71
2023-02-17T15:53:44.595Z,64.70
2023-02-17T15:56:22.549Z,64.70
2023-02-17T15:58:51.157Z,64.56
2023-02-17T16:01:34.002Z,64.30
2023-02-17T16:04:02.776Z,64.53
2023-02-17T16:06:31.623Z,64.69
2023-02-17T16:09:00.142Z,64.45
2023-02-17T16:11:29.353Z,64.40
2023-02-17T16:13:57.868Z,64.66
2023-02-17T16:16:33.055Z,64.71
2023-02-17T16:19:02.537Z,64.71
2023-02-17T16:21:30.983Z,64.52
2023-02-17T16:24:00.674Z,64.59
2023-02-17T16:26:37.447Z,64.36
2023-02-17T16:29:18.675Z,64.21
2023-02-17T16:31:48.112Z,64.26
2023-02-17T16:34:22.999Z,64.41
2023-02-17T16:36:55.127Z,64.33
2023-02-17T16:39:23.774Z,64.17
2023-02-17T16:41:52.633Z,64.12
2023-02-17T16:44:22.968Z,64.12
2023-02-17T16:46:55.484Z,63.79
2023-02-17T16:49:34.119Z,63.91
2023-02-17T16:52:07.501Z,63.94
2023-02-17T16:54:36.127Z,64.02
2023-02-17T16:57:04.699Z,63.76
2023-02-17T16:59:33.206Z,63.57
2023-02-17T17:02:01.989Z,63.56
2023-02-17T17:04:30.516Z,63.44
2023-02-17T17:06:59.139Z,63.60
2023-02-17T17:09:28.266Z,63.53
2023-02-17T17:11:57.715Z,63.61
2023-02-17T17:14:26.207Z,63.54
2023-02-17T17:17:01.862Z,63.38
2023-02-17T17:19:30.357Z,63.44
2023-02-17T17:21:58.815Z,63.33
2023-02-17T17:24:27.480Z,63.07
2023-02-17T17:26:56.277Z,62.86
2023-02-17T17:29:24.789Z,62.62
2023-02-17T17:31:53.568Z,62.43
2023-02-17T17:34:22.264Z,62.47
2023-02-17T17:36:50.709Z,62.67
2023-02-17T17:39:24.292Z,62.59
2023-02-17T17:41:52.920Z,62.56
2023-02-17T17:44:22.155Z,62.51
2023-02-17T17:46:50.714Z,62.62
2023-02-17T17:49:19.200Z,62.88
2023-02-17T17:51:47.651Z,63.24
2023-02-17T17:54:16.517Z,63.22
2023-02-17T17:56:45.287Z,63.15
2023-02-17T17:59:14.538Z,63.33
2023-02-17T18:01:45.530Z,63.36
2023-02-17T18:04:14.600Z,63.28
2023-02-17T18:06:47.742Z,63.29
2023-02-17T18:09:31.274Z,62.92
2023-02-17T18:12:06.011Z,62.78
2023-02-17T18:14:37.979Z,62.80
2023-02-17T18:17:08.049Z,62.79
2023-02-17T18:19:36.738Z,62.45
2023-02-17T18:22:05.465Z,62.47
2023-02-17T18:24:34.426Z,62.74
2023-02-17T18:27:03.308Z,62.41
2023-02-17T18:29:32.034Z,62.24
2023-02-17T18:32:00.766Z,61.91
2023-02-17T18:34:29.346Z,62.16
2023-02-17T18:36:57.883Z,62.05
2023-02-17T18:39:26.683Z,61.90
2023-02-17T18:41:55.201Z,62.01
2023-02-17T18:44:23.645Z,61.66
2023-02-17T18:46:52.320Z,61.45
2023-02-17T18:49:20.719Z,61.50
2023-02-17T18:51:50.547Z,61.24
2023-02-17T18:54:19.485Z,60.68
2023-02-17T18:56:48.156Z,60.87
2023-02-17T18:59:16.673Z,60.89
2023-02-17T19:01:45.266Z,61.14
2023-02-17T19:04:15.466Z,60.95
2023-02-17T19:06:43.926Z,60.23
2023-02-17T19:09:12.589Z,60.35
2023-02-17T19:11:41.434Z,62.56
2023-02-17T19:14:09.856Z,62.76
2023-02-17T19:16:39.240Z,61.94
2023-02-17T19:19:07.703Z,61.15
2023-02-17T19:21:36.494Z,60.37
2023-02-17T19:24:05.373Z,59.90
2023-02-17T19:26:34.343Z,60.18
2023-02-17T19:29:02.922Z,62.24
2023-02-17T19:31:31.667Z,63.54
2023-02-17T19:34:00.273Z,63.14
2023-02-17T19:36:28.722Z,61.94
2023-02-17T19:38:57.813Z,61.41
2023-02-17T19:41:26.305Z,60.99
2023-02-17T19:43:54.751Z,60.97
2023-02-17T19:46:24.878Z,60.36
2023-02-17T19:48:53.383Z,60.63
2023-02-17T19:51:21.982Z,62.08
2023-02-17T19:53:50.518Z,62.76
2023-02-17T19:56:21.865Z,61.53
2023-02-17T19:58:52.034Z,59.82
2023-02-17T20:01:23.902Z,60.02
2023-02-17T20:03:54.881Z,62.08
2023-02-17T20:06:29.079Z,61.98
2023-02-17T20:09:00.458Z,61.28
2023-02-17T20:11:29.618Z,60.22
2023-02-17T20:13:59.953Z,60.09
2023-02-17T20:16:29.880Z,59.04
2023-02-17T20:19:01.349Z,58.28
2023-02-17T20:21:32.609Z,59.41
2023-02-17T20:24:01.865Z,59.96
2023-02-17T20:26:38.285Z,60.84
2023-02-17T20:29:07.154Z,61.64
2023-02-17T20:31:37.232Z,59.88
2023-02-17T20:34:07.772Z,57.54
2023-02-17T20:36:36.272Z,58.07
2023-02-17T20:39:05.202Z,58.49
2023-02-17T20:41:33.771Z,60.25
2023-02-17T20:44:04.389Z,60.38
2023-02-17T20:46:32.999Z,60.29
2023-02-17T20:49:01.439Z,62.29
2023-02-17T20:51:29.999Z,59.84
2023-02-17T20:53:58.399Z,57.81
2023-02-17T20:56:34.514Z,59.81
2023-02-17T20:59:04.344Z,60.42
2023-02-17T21:01:32.982Z,61.44
2023-02-17T21:04:02.445Z,60.88
2023-02-17T21:06:34.753Z,62.61
2023-02-17T21:09:07.348Z,58.37
2023-02-17T21:11:36.216Z,58.06
2023-02-17T21:14:04.667Z,58.33
2023-02-17T21:16:33.287Z,57.06
2023-02-17T21:19:02.500Z,57.50
2023-02-17T21:21:32.221Z,55.96
2023-02-17T21:24:00.758Z,55.10
2023-02-17T21:26:29.244Z,55.13
2023-02-17T21:28:57.720Z,54.69
2023-02-17T21:31:29.306Z,54.28
2023-02-17T21:33:59.147Z,55.99
2023-02-17T21:36:29.349Z,57.69
2023-02-17T21:38:59.391Z,56.46
2023-02-17T21:41:30.021Z,57.15
2023-02-17T21:44:18.639Z,57.23
2023-02-17T21:46:47.162Z,56.63
2023-02-17T21:49:15.678Z,55.76
2023-02-17T21:51:44.430Z,56.73
2023-02-17T21:54:13.060Z,55.87
2023-02-17T21:56:41.530Z,55.03
2023-02-17T21:59:10.106Z,55.54
2023-02-17T22:01:38.704Z,54.57
2023-02-17T22:04:07.191Z,55.19
2023-02-17T22:06:38.928Z,55.08
2023-02-17T22:09:09.614Z,54.14
2023-02-17T22:11:41.022Z,55.52
2023-02-17T22:14:13.958Z,55.12
2023-02-17T22:16:43.014Z,55.52
2023-02-17T22:19:31.457Z,55.48
2023-02-17T22:22:00.145Z,55.61
2023-02-17T22:24:28.650Z,55.69
2023-02-17T22:26:57.464Z,55.80
2023-02-17T22:29:26.042Z,56.22
2023-02-17T22:31:56.303Z,55.96
2023-02-17T22:34:27.763Z,56.00
2023-02-17T22:36:56.442Z,56.43
2023-02-17T22:39:24.982Z,56.37
2023-02-17T22:41:53.713Z,56.52
2023-02-17T22:44:22.675Z,56.81
2023-02-17T22:46:51.123Z,57.11
2023-02-17T22:49:19.625Z,57.48
2023-02-17T22:51:48.761Z,57.65
2023-02-17T22:54:17.253Z,57.94
2023-02-17T22:56:45.894Z,58.06
2023-02-17T22:59:14.342Z,58.42
2023-02-17T23:01:43.028Z,58.59
2023-02-17T23:04:14.296Z,59.08
2023-02-17T23:06:43.862Z,58.90
2023-02-17T23:09:18.146Z,59.18
2023-02-17T23:11:50.253Z,59.29
2023-02-17T23:14:31.419Z,59.21
2023-02-17T23:17:03.382Z,59.60
2023-02-17T23:19:33.490Z,59.94
2023-02-17T23:22:08.629Z,60.41
2023-02-17T23:24:37.466Z,60.67
2023-02-17T23:27:06.278Z,60.89
2023-02-17T23:29:34.966Z,61.03
2023-02-17T23:32:03.506Z,61.09
2023-02-17T23:34:32.265Z,60.94
2023-02-17T23:37:01.062Z,61.11
2023-02-17T23:39:29.663Z,60.77
2023-02-17T23:41:58.182Z,60.87
2023-02-17T23:44:26.620Z,60.71
2023-02-17T23:46:55.115Z,60.50
2023-02-17T23:49:23.528Z,60.89
2023-02-17T23:51:52.820Z,60.95
2023-02-17T23:54:22.924Z,60.69
2023-02-17T23:56:51.355Z,60.95
2023-02-17T23:59:19.827Z,60.90
